Tropical Cyclones
[Index]
Main Index Home Page Stock Weather Photos Extreme Storms Discussion Storm News and Storm Chasing Reports Tropical Cyclones / Hurricanes / Typhoons Weather Data and Links Wild Fires / Bushfires Weather Observation Techniques Weather Picture Catalogue Tornado Pictures and Reports Stock Video Footage and DVDs for sale
Season 1988-1989 Tropical Cyclone HANITRA Track Map
Season 1988-1989 Summaries: [BoM-AU] [JTWC-AU] [JTWC-SIO] [JTWC-SPAC] [JTWC-SH]
<<- Previous TC | JTWC 1988-1989 Season | Next TC ->>

click for intensity scale information  Lat/long Grid: Show Hide

 Date Labels: Show Hide

Joint Typhoon Warning Centre Cyclone Data

Name: HANITRA

14 Feb 1989 00:00 UTC to 01 Mar 1989 06:00 UTC

    date/time    lat    long     hPa   cat  kts
1989-02-14 00   12.6   100.5                  20          
1989-02-14 06   12.5   100.2                  20          
1989-02-14 12   12.3   100.0                  20          
1989-02-14 18   12.5    99.8                  20          
1989-02-15 00   12.5   100.1                  20          
1989-02-15 06   12.6   100.3                  20          
1989-02-15 12   12.7   100.6                  20          
1989-02-15 18   12.8   101.0                  25          
1989-02-16 00   13.0   101.3                  25          
1989-02-16 06   13.4   101.2                  25          
1989-02-16 12   13.6   100.8                  25          
1989-02-16 18   13.6   100.3                  25          
1989-02-17 00   13.8    99.6                  30          
1989-02-17 06   14.0    98.9                  30          
1989-02-17 12   14.2    97.9                  35          
1989-02-17 18   13.9    96.9                  35          
1989-02-18 00   13.5    95.8            1     45          
1989-02-18 06   13.1    94.7            2     55          
1989-02-18 12   13.1    93.6            2     55          
1989-02-18 18   13.1    92.4            1     50          
1989-02-19 00   13.0    91.3            1     50          
1989-02-19 06   12.9    90.2            1     45          
1989-02-19 12   12.6    89.0            2     55          
1989-02-19 18   12.6    87.9            2     65          
1989-02-20 00   12.7    86.8            3     75          
1989-02-20 06   12.7    85.9            3     90          
1989-02-20 12   12.7    85.3            4    105          
1989-02-20 18   12.7    84.7            4    115          
1989-02-21 00   12.8    84.1            4    110          
1989-02-21 06   12.8    83.6            4    105          
1989-02-21 12   12.9    83.3            4    115          
1989-02-21 18   13.0    83.1            4    115          
1989-02-22 00   13.2    82.8            4    115          
1989-02-22 06   13.5    82.6            4    120          
1989-02-22 12   13.8    82.4            5    125          
1989-02-22 18   14.2    82.1            5    125          
1989-02-23 00   14.6    81.8            5    125          
1989-02-23 06   14.9    81.3            5    125          
1989-02-23 12   15.3    80.7            5    125          
1989-02-23 18   15.8    80.1            4    120          
1989-02-24 00   16.2    79.5            4    120          
1989-02-24 06   16.5    78.8            4    115          
1989-02-24 12   16.9    78.1            4    110          
1989-02-24 18   17.4    77.4            4    105          
1989-02-25 00   17.9    76.8            4    105          
1989-02-25 06   18.5    76.1            4    100          
1989-02-25 12   19.1    75.4            3     90          
1989-02-25 18   19.7    74.7            3     85          
1989-02-26 00   20.4    74.0            3     80          
1989-02-26 06   21.2    73.4            3     75          
1989-02-26 12   22.2    72.7            3     75          
1989-02-26 18   23.5    72.2            2     70          
1989-02-27 00   24.9    71.7            2     65          
1989-02-27 06   26.4    71.4            2     65          
1989-02-27 12   28.0    71.3            2     55          
1989-02-27 18   29.5    71.5            1     50          
1989-02-28 00   30.7    71.8            1     45          
1989-02-28 06   31.7    72.1                  35          
1989-02-28 12   32.2    72.6                  30          
1989-02-28 18   32.6    73.2                  25          
1989-03-01 00   33.1    73.8                  25          
1989-03-01 06   33.8    74.4                  25          
Winds are 1-min average.

Tropical cyclone tracks developed by Michael Bath using data from the Joint Typhoon Warning Centre Best Tracks and Google Maps.


[Australian Severe Weather index] [Copyright Notice] [Email Contacts] [Search This Site] [Privacy Policy]
Document: tropical_cyclone_hanitra.htm Updated: 18 September 2016